Time;durP1;ratioP1;P1;durP2;ratioP2;P2;SDS_P1;SDS_P2;PMS_P1;PMS_P2;Temp;Humidity;BMP_temperature;BMP_pressure;BME280_temperature;BME280_humidity;BME280_pressure;Samples;Min_cycle;Max_cycle;Signal;HPM_P1;HPM_P2
2022/07/30 00:01:58;;;;;;;;;;;;;;;;;;5014760;28;19914;-30
2022/07/30 00:04:24;;;;;;;;;;;;;;;;;;5014623;28;19917;-29
2022/07/30 00:06:50;;;;;;;;;;;;;;;;;;5015056;28;19932;-29
2022/07/30 00:09:16;;;;;;;;;;;;;;;;;;5014758;28;19920;-30
2022/07/30 00:11:42;;;;;;;;;;;;;;;;;;5014727;28;19924;-30
2022/07/30 00:14:08;;;;;;;;;;;;;;;;;;5014543;28;19925;-30
2022/07/30 00:16:34;;;;;;;;;;;;;;;;;;5014718;28;19918;-30
2022/07/30 00:19:01;;;;;;;;;;;;;;;;;;5015873;28;19981;-30
2022/07/30 00:21:27;;;;;;;;;;;;;;;;;;5018084;28;20368;-30
2022/07/30 00:23:53;;;;;;;;;;;;;;;;;;5018055;28;19917;-30
2022/07/30 00:26:19;;;;;;;;;;;;;;;;;;5018309;28;19913;-30
2022/07/30 00:28:45;;;;;;;;;;;;;;;;;;5018289;28;19910;-29
2022/07/30 00:31:11;;;;;;;;;;;;;;;;;;5018025;28;19914;-29
2022/07/30 00:33:37;;;;;;;;;;;;;;;;;;5017922;28;19917;-30
2022/07/30 00:36:03;;;;;;;;;;;;;;;;;;5017901;28;19950;-30
2022/07/30 00:38:28;;;;;;;;;;;;;;;;;;5017814;28;20230;-30
2022/07/30 00:40:54;;;;;;;;;;;;;;;;;;5017832;28;20007;-29
2022/07/30 00:43:20;;;;;;;;;;;;;;;;;;5016706;28;19913;-30
2022/07/30 00:45:46;;;;;;;;;;;;;;;;;;5017679;28;19909;-29
2022/07/30 00:48:12;;;;;;;;;;;;;;;;;;5017660;28;19917;-29
2022/07/30 00:50:38;;;;;;;;;;;;;;;;;;5017649;28;19977;-29
2022/07/30 00:53:04;;;;;;;;;;;;;;;;;;5017402;28;19989;-30
2022/07/30 00:55:30;;;;;;;;;;;;;;;;;;5017818;28;19909;-30
2022/07/30 00:57:56;;;;;;;;;;;;;;;;;;5017764;28;19913;-30
2022/07/30 01:00:22;;;;;;;;;;;;;;;;;;5017450;28;19979;-29
2022/07/30 01:02:48;;;;;;;;;;;;;;;;;;5017280;28;20351;-29
2022/07/30 01:05:14;;;;;;;;;;;;;;;;;;5017624;28;19936;-29
2022/07/30 01:07:40;;;;;;;;;;;;;;;;;;5017272;28;19968;-29
2022/07/30 01:10:06;;;;;;;;;;;;;;;;;;5017534;28;19909;-29
2022/07/30 01:12:32;;;;;;;;;;;;;;;;;;5016099;28;19913;-29
2022/07/30 01:14:58;;;;;;;;;;;;;;;;;;5017127;28;19910;-28
2022/07/30 01:17:24;;;;;;;;;;;;;;;;;;5016143;28;19924;-30
2022/07/30 01:19:54;;;;;;;;;;;;;;;;;;5017032;28;19910;-30
2022/07/30 01:22:20;;;;;;;;;;;;;;;;;;5015927;28;20004;-30
2022/07/30 01:24:46;;;;;;;;;;;;;;;;;;5016011;28;19960;-29
2022/07/30 01:27:12;;;;;;;;;;;;;;;;;;5016899;28;19914;-28
2022/07/30 01:29:38;;;;;;;;;;;;;;;;;;5016583;28;19921;-29
2022/07/30 01:32:06;;;;;;;;;;;;;;;;;;5016739;28;19918;-30
2022/07/30 01:34:32;;;;;;;;;;;;;;;;;;5015716;28;20016;-29
2022/07/30 01:36:58;;;;;;;;;;;;;;;;;;5016685;28;19957;-30
2022/07/30 01:39:23;;;;;;;;;;;;;;;;;;5016623;28;19917;-29
2022/07/30 01:41:49;;;;;;;;;;;;;;;;;;5016572;28;19975;-30
2022/07/30 01:44:15;;;;;;;;;;;;;;;;;;5015643;28;19928;-29
2022/07/30 01:46:41;;;;;;;;;;;;;;;;;;5016847;28;20000;-30
2022/07/30 01:49:08;;;;;;;;;;;;;;;;;;5016488;28;20015;-29
2022/07/30 01:51:34;;;;;;;;;;;;;;;;;;5015505;28;19914;-29
2022/07/30 01:53:59;;;;;;;;;;;;;;;;;;5016552;28;20016;-29
2022/07/30 01:56:25;;;;;;;;;;;;;;;;;;5016671;28;19909;-30
2022/07/30 01:58:51;;;;;;;;;;;;;;;;;;5016331;28;19913;-29
2022/07/30 02:01:17;;;;;;;;;;;;;;;;;;5016351;28;20327;-29
2022/07/30 02:03:43;;;;;;;;;;;;;;;;;;5015938;28;19943;-30
2022/07/30 02:06:10;;;;;;;;;;;;;;;;;;5016214;28;19969;-30
2022/07/30 02:08:36;;;;;;;;;;;;;;;;;;5016176;28;19956;-29
2022/07/30 02:11:02;;;;;;;;;;;;;;;;;;5016119;28;20291;-29
2022/07/30 02:13:28;;;;;;;;;;;;;;;;;;5016196;28;20046;-28
2022/07/30 02:15:54;;;;;;;;;;;;;;;;;;5016071;28;20307;-29
2022/07/30 02:18:20;;;;;;;;;;;;;;;;;;5015966;28;20004;-29
2022/07/30 02:20:46;;;;;;;;;;;;;;;;;;5015996;28;20007;-30
2022/07/30 02:23:12;;;;;;;;;;;;;;;;;;5016145;28;19913;-30
2022/07/30 02:25:38;;;;;;;;;;;;;;;;;;5014914;28;20269;-30
2022/07/30 02:28:04;;;;;;;;;;;;;;;;;;5016371;28;19964;-29
2022/07/30 02:30:30;;;;;;;;;;;;;;;;;;5015814;28;19913;-29
2022/07/30 02:32:56;;;;;;;;;;;;;;;;;;5015617;28;19928;-29
2022/07/30 02:35:22;;;;;;;;;;;;;;;;;;5016024;28;20004;-30
2022/07/30 02:37:49;;;;;;;;;;;;;;;;;;5015676;28;20325;-29
2022/07/30 02:40:15;;;;;;;;;;;;;;;;;;5015674;28;19910;-29
2022/07/30 02:42:42;;;;;;;;;;;;;;;;;;5014905;28;20370;-30
2022/07/30 02:45:08;;;;;;;;;;;;;;;;;;5015500;28;19924;-29
2022/07/30 02:47:34;;;;;;;;;;;;;;;;;;5015541;28;19925;-29
2022/07/30 02:50:00;;;;;;;;;;;;;;;;;;5015832;28;19910;-29
2022/07/30 02:52:26;;;;;;;;;;;;;;;;;;5015338;28;20340;-30
2022/07/30 02:54:52;;;;;;;;;;;;;;;;;;5015746;28;19920;-30
2022/07/30 02:57:17;;;;;;;;;;;;;;;;;;5015430;28;19909;-29
2022/07/30 02:59:44;;;;;;;;;;;;;;;;;;5015691;28;19917;-30
2022/07/30 03:02:09;;;;;;;;;;;;;;;;;;5015593;28;19913;-29
2022/07/30 03:04:35;;;;;;;;;;;;;;;;;;5015248;28;20312;-29
2022/07/30 03:07:01;;;;;;;;;;;;;;;;;;5015565;28;19913;-29
2022/07/30 03:09:27;;;;;;;;;;;;;;;;;;5015649;28;19910;-29
2022/07/30 03:11:53;;;;;;;;;;;;;;;;;;5015231;28;20300;-29
2022/07/30 03:14:19;;;;;;;;;;;;;;;;;;5015235;28;19990;-30
2022/07/30 03:16:45;;;;;;;;;;;;;;;;;;5015276;28;20397;-29
2022/07/30 03:19:12;;;;;;;;;;;;;;;;;;5015510;28;20012;-30
2022/07/30 03:21:38;;;;;;;;;;;;;;;;;;5014232;28;19914;-29
2022/07/30 03:24:04;;;;;;;;;;;;;;;;;;5015103;28;19913;-29
2022/07/30 03:26:30;;;;;;;;;;;;;;;;;;5015004;28;19967;-29
2022/07/30 03:28:56;;;;;;;;;;;;;;;;;;5015137;28;19910;-29
2022/07/30 03:31:22;;;;;;;;;;;;;;;;;;5015137;28;19913;-29
2022/07/30 03:33:48;;;;;;;;;;;;;;;;;;5014034;28;20268;-29
2022/07/30 03:36:14;;;;;;;;;;;;;;;;;;5015315;28;19914;-30
2022/07/30 03:38:40;;;;;;;;;;;;;;;;;;5015076;28;19909;-30
2022/07/30 03:41:06;;;;;;;;;;;;;;;;;;5015319;28;19914;-29
2022/07/30 03:43:32;;;;;;;;;;;;;;;;;;5014999;28;20008;-29
2022/07/30 03:45:58;;;;;;;;;;;;;;;;;;5015019;28;20004;-29
2022/07/30 03:48:25;;;;;;;;;;;;;;;;;;5015208;28;19913;-30
2022/07/30 03:50:51;;;;;;;;;;;;;;;;;;5015167;28;19921;-29
2022/07/30 03:53:17;;;;;;;;;;;;;;;;;;5016609;28;19924;-29
2022/07/30 03:55:43;;;;;;;;;;;;;;;;;;5018648;28;19913;-30
2022/07/30 03:58:10;;;;;;;;;;;;;;;;;;5018529;28;19932;-30
2022/07/30 04:00:36;;;;;;;;;;;;;;;;;;5018439;28;19909;-30
2022/07/30 04:03:02;;;;;;;;;;;;;;;;;;5018123;28;19921;-30
2022/07/30 04:05:28;;;;;;;;;;;;;;;;;;5018311;28;19924;-29
2022/07/30 04:07:54;;;;;;;;;;;;;;;;;;5018333;28;19914;-30
2022/07/30 04:10:20;;;;;;;;;;;;;;;;;;5018492;28;19910;-29
2022/07/30 04:12:46;;;;;;;;;;;;;;;;;;5017987;28;19984;-28
2022/07/30 04:15:12;;;;;;;;;;;;;;;;;;5018205;28;20337;-29
2022/07/30 04:17:38;;;;;;;;;;;;;;;;;;5018085;28;19917;-29
2022/07/30 04:20:04;;;;;;;;;;;;;;;;;;5018290;28;19913;-29
2022/07/30 04:22:30;;;;;;;;;;;;;;;;;;5017867;28;20357;-28
2022/07/30 04:24:56;;;;;;;;;;;;;;;;;;5017966;28;19913;-28
2022/07/30 04:27:24;;;;;;;;;;;;;;;;;;5017841;28;20352;-29
2022/07/30 04:29:50;;;;;;;;;;;;;;;;;;5016967;28;19921;-29
2022/07/30 04:32:16;;;;;;;;;;;;;;;;;;5017747;28;20000;-30
2022/07/30 04:34:42;;;;;;;;;;;;;;;;;;5018020;28;20012;-29
2022/07/30 04:37:08;;;;;;;;;;;;;;;;;;5018038;28;20299;-29
2022/07/30 04:39:34;;;;;;;;;;;;;;;;;;5016789;28;19943;-29
2022/07/30 04:42:00;;;;;;;;;;;;;;;;;;5017881;28;19917;-29
2022/07/30 04:44:26;;;;;;;;;;;;;;;;;;5017662;28;19979;-28
2022/07/30 04:46:52;;;;;;;;;;;;;;;;;;5017646;28;19917;-29
2022/07/30 04:49:18;;;;;;;;;;;;;;;;;;5017554;28;19933;-28
2022/07/30 04:51:44;;;;;;;;;;;;;;;;;;5017491;28;19929;-29
2022/07/30 04:54:10;;;;;;;;;;;;;;;;;;5017220;28;19914;-28
2022/07/30 04:56:36;;;;;;;;;;;;;;;;;;5017398;28;19913;-29
2022/07/30 04:59:02;;;;;;;;;;;;;;;;;;5017676;28;19909;-29
2022/07/30 05:01:28;;;;;;;;;;;;;;;;;;5017356;28;19913;-29
2022/07/30 05:03:54;;;;;;;;;;;;;;;;;;5016695;28;19924;-29
2022/07/30 05:06:20;;;;;;;;;;;;;;;;;;5016889;28;19914;-29
2022/07/30 05:08:46;;;;;;;;;;;;;;;;;;5017235;28;19910;-29
2022/07/30 05:11:12;;;;;;;;;;;;;;;;;;5017478;28;20374;-29
2022/07/30 05:13:38;;;;;;;;;;;;;;;;;;5017012;28;20349;-29
2022/07/30 05:16:04;;;;;;;;;;;;;;;;;;5017248;28;19963;-29
2022/07/30 05:18:30;;;;;;;;;;;;;;;;;;5017229;28;19910;-29
2022/07/30 05:20:56;;;;;;;;;;;;;;;;;;5015861;28;20320;-29
2022/07/30 05:23:22;;;;;;;;;;;;;;;;;;5017161;28;19917;-28
2022/07/30 05:25:48;;;;;;;;;;;;;;;;;;5016838;28;19920;-29
2022/07/30 05:28:14;;;;;;;;;;;;;;;;;;5016753;28;19919;-29
2022/07/30 05:30:40;;;;;;;;;;;;;;;;;;5017033;28;19910;-29
2022/07/30 05:33:06;;;;;;;;;;;;;;;;;;5016515;28;19917;-29
2022/07/30 05:35:32;;;;;;;;;;;;;;;;;;5016668;28;20363;-28
2022/07/30 05:37:58;;;;;;;;;;;;;;;;;;5015581;28;19913;-29
2022/07/30 05:40:24;;;;;;;;;;;;;;;;;;5016525;28;19920;-29
2022/07/30 05:42:50;;;;;;;;;;;;;;;;;;5016369;28;20007;-29
2022/07/30 05:45:16;;;;;;;;;;;;;;;;;;5016832;28;19914;-28
2022/07/30 05:47:42;;;;;;;;;;;;;;;;;;5016555;28;19909;-29
2022/07/30 05:50:08;;;;;;;;;;;;;;;;;;5016440;28;19918;-29
2022/07/30 05:52:34;;;;;;;;;;;;;;;;;;5016267;28;19913;-29
2022/07/30 05:55:00;;;;;;;;;;;;;;;;;;5016283;28;19913;-29
2022/07/30 05:57:26;;;;;;;;;;;;;;;;;;5016482;28;20349;-29
2022/07/30 05:59:52;;;;;;;;;;;;;;;;;;5016545;28;19921;-29
2022/07/30 06:02:18;;;;;;;;;;;;;;;;;;5016475;28;20012;-29
2022/07/30 06:04:44;;;;;;;;;;;;;;;;;;5016035;28;19979;-29
2022/07/30 06:07:10;;;;;;;;;;;;;;;;;;5016151;28;19924;-29
2022/07/30 06:09:36;;;;;;;;;;;;;;;;;;5016656;28;19914;-29
2022/07/30 06:12:02;;;;;;;;;;;;;;;;;;5016021;28;19920;-30
2022/07/30 06:14:28;;;;;;;;;;;;;;;;;;5015979;28;20304;-29
2022/07/30 06:16:53;;;;;;;;;;;;;;;;;;5015087;28;19917;-29
2022/07/30 06:19:19;;;;;;;;;;;;;;;;;;5015993;28;20000;-29
2022/07/30 06:21:45;;;;;;;;;;;;;;;;;;5015834;28;19992;-29
2022/07/30 06:24:11;;;;;;;;;;;;;;;;;;5015831;28;19967;-28
2022/07/30 06:26:37;;;;;;;;;;;;;;;;;;5015798;28;19975;-29
2022/07/30 06:29:03;;;;;;;;;;;;;;;;;;5016027;28;19956;-29
2022/07/30 06:31:29;;;;;;;;;;;;;;;;;;5015707;28;19921;-29
2022/07/30 06:33:55;;;;;;;;;;;;;;;;;;5015565;28;20423;-29
2022/07/30 06:36:22;;;;;;;;;;;;;;;;;;5014738;28;19913;-29
2022/07/30 06:38:48;;;;;;;;;;;;;;;;;;5014605;28;19913;-29
2022/07/30 06:41:14;;;;;;;;;;;;;;;;;;5014440;28;19918;-28
2022/07/30 06:43:40;;;;;;;;;;;;;;;;;;5015720;28;19909;-30
2022/07/30 06:46:06;;;;;;;;;;;;;;;;;;5015784;28;19914;-30
2022/07/30 06:48:32;;;;;;;;;;;;;;;;;;5015487;28;19920;-30
2022/07/30 06:50:58;;;;;;;;;;;;;;;;;;5015659;28;19920;-29
2022/07/30 06:53:24;;;;;;;;;;;;;;;;;;5015402;28;19917;-30
2022/07/30 06:55:50;;;;;;;;;;;;;;;;;;5014252;28;19913;-29
2022/07/30 06:58:16;;;;;;;;;;;;;;;;;;5015646;28;20340;-29
2022/07/30 07:00:43;;;;;;;;;;;;;;;;;;5014415;28;19914;-29
2022/07/30 07:03:09;;;;;;;;;;;;;;;;;;5015189;28;20008;-29
2022/07/30 07:05:35;;;;;;;;;;;;;;;;;;5015290;28;20340;-30
2022/07/30 07:08:01;;;;;;;;;;;;;;;;;;5014284;28;19921;-30
2022/07/30 07:10:27;;;;;;;;;;;;;;;;;;5015222;28;20340;-30
2022/07/30 07:12:53;;;;;;;;;;;;;;;;;;5015291;28;20048;-30
2022/07/30 07:15:19;;;;;;;;;;;;;;;;;;5015090;28;19914;-30
2022/07/30 07:17:45;;;;;;;;;;;;;;;;;;5015174;28;19913;-29
2022/07/30 07:20:11;;;;;;;;;;;;;;;;;;5015134;28;19983;-30
2022/07/30 07:22:37;;;;;;;;;;;;;;;;;;5015240;28;19967;-30
2022/07/30 07:25:03;;;;;;;;;;;;;;;;;;5015052;28;19917;-29
2022/07/30 07:27:29;;;;;;;;;;;;;;;;;;5015686;28;19920;-30
2022/07/30 07:29:55;;;;;;;;;;;;;;;;;;5018887;28;20348;-29
2022/07/30 07:32:21;;;;;;;;;;;;;;;;;;5019106;28;20039;-30
2022/07/30 07:34:47;;;;;;;;;;;;;;;;;;5019305;28;20332;-30
2022/07/30 07:37:14;;;;;;;;;;;;;;;;;;5018897;28;20363;-29
2022/07/30 07:39:40;;;;;;;;;;;;;;;;;;5018895;28;19913;-29
2022/07/30 07:42:07;;;;;;;;;;;;;;;;;;5018827;28;19919;-29
2022/07/30 07:44:32;;;;;;;;;;;;;;;;;;5018849;28;19913;-30
2022/07/30 07:46:58;;;;;;;;;;;;;;;;;;5018704;28;19909;-29
2022/07/30 07:49:24;;;;;;;;;;;;;;;;;;5019191;28;19913;-30
2022/07/30 07:51:50;;;;;;;;;;;;;;;;;;5018834;28;20291;-29
2022/07/30 07:54:16;;;;;;;;;;;;;;;;;;5018429;28;20256;-29
2022/07/30 07:56:42;;;;;;;;;;;;;;;;;;5018534;28;19920;-29
2022/07/30 07:59:08;;;;;;;;;;;;;;;;;;5018916;28;19914;-30
2022/07/30 08:01:34;;;;;;;;;;;;;;;;;;5018536;28;19983;-30
2022/07/30 08:04:00;;;;;;;;;;;;;;;;;;5018160;28;20015;-28
2022/07/30 08:06:26;;;;;;;;;;;;;;;;;;5018422;28;19913;-29
2022/07/30 08:08:53;;;;;;;;;;;;;;;;;;5018384;28;19909;-30
2022/07/30 08:11:19;;;;;;;;;;;;;;;;;;5018334;28;20368;-29
2022/07/30 08:13:45;;;;;;;;;;;;;;;;;;5017041;28;20086;-29
2022/07/30 08:16:13;;;;;;;;;;;;;;;;;;5018351;28;19917;-29
2022/07/30 08:18:39;;;;;;;;;;;;;;;;;;5018048;28;19910;-29
2022/07/30 08:21:05;;;;;;;;;;;;;;;;;;5018180;28;19910;-29
2022/07/30 08:23:31;;;;;;;;;;;;;;;;;;5018019;28;19928;-30
2022/07/30 08:25:57;;;;;;;;;;;;;;;;;;5018133;28;20000;-29
2022/07/30 08:28:23;;;;;;;;;;;;;;;;;;5018072;28;19924;-29
2022/07/30 08:30:49;;;;;;;;;;;;;;;;;;5018263;28;19971;-30
2022/07/30 08:33:15;;;;;;;;;;;;;;;;;;5018168;28;19914;-29
2022/07/30 08:35:41;;;;;;;;;;;;;;;;;;5017950;28;20295;-29
2022/07/30 08:38:07;;;;;;;;;;;;;;;;;;5017912;28;19909;-29
2022/07/30 08:40:33;;;;;;;;;;;;;;;;;;5016824;28;19913;-30
2022/07/30 08:42:59;;;;;;;;;;;;;;;;;;5018153;28;20356;-29
2022/07/30 08:45:25;;;;;;;;;;;;;;;;;;5016840;28;19957;-29
2022/07/30 08:47:51;;;;;;;;;;;;;;;;;;5016790;28;20003;-29
2022/07/30 08:50:17;;;;;;;;;;;;;;;;;;5016686;28;20341;-29
2022/07/30 08:52:43;;;;;;;;;;;;;;;;;;5017726;28;19910;-29
2022/07/30 08:55:09;;;;;;;;;;;;;;;;;;5017578;28;20000;-29
2022/07/30 08:57:35;;;;;;;;;;;;;;;;;;5017505;28;19913;-28
2022/07/30 09:00:01;;;;;;;;;;;;;;;;;;5017474;28;19913;-29
2022/07/30 09:02:27;;;;;;;;;;;;;;;;;;5017267;28;19910;-30
2022/07/30 09:04:53;;;;;;;;;;;;;;;;;;5017295;28;20261;-29
2022/07/30 09:07:19;;;;;;;;;;;;;;;;;;5017315;28;19924;-29
2022/07/30 09:09:45;;;;;;;;;;;;;;;;;;5017574;28;19920;-29
2022/07/30 09:12:11;;;;;;;;;;;;;;;;;;5016194;28;19909;-29
2022/07/30 09:14:37;;;;;;;;;;;;;;;;;;5017030;28;19921;-30
2022/07/30 09:17:03;;;;;;;;;;;;;;;;;;5017168;28;19991;-29
2022/07/30 09:19:29;;;;;;;;;;;;;;;;;;5017131;28;20357;-29
2022/07/30 09:21:55;;;;;;;;;;;;;;;;;;5017155;28;19914;-29
2022/07/30 09:24:21;;;;;;;;;;;;;;;;;;5016969;28;19910;-30
2022/07/30 09:26:47;;;;;;;;;;;;;;;;;;5016839;28;19921;-30
2022/07/30 09:29:13;;;;;;;;;;;;;;;;;;5016959;28;20380;-30
2022/07/30 09:31:39;;;;;;;;;;;;;;;;;;5017012;28;19980;-29
2022/07/30 09:34:05;;;;;;;;;;;;;;;;;;5016684;28;19921;-29
2022/07/30 09:36:32;;;;;;;;;;;;;;;;;;5016795;28;19949;-29
2022/07/30 09:38:57;;;;;;;;;;;;;;;;;;5016626;28;20343;-29
2022/07/30 09:41:25;;;;;;;;;;;;;;;;;;5017169;28;20000;-29
2022/07/30 09:43:50;;;;;;;;;;;;;;;;;;5016601;28;19951;-29
2022/07/30 09:46:16;;;;;;;;;;;;;;;;;;5016568;28;20333;-29
2022/07/30 09:48:43;;;;;;;;;;;;;;;;;;5015597;28;20395;-30
2022/07/30 09:51:09;;;;;;;;;;;;;;;;;;5016424;28;19909;-29
2022/07/30 09:53:35;;;;;;;;;;;;;;;;;;5015390;28;20016;-30
2022/07/30 09:56:01;;;;;;;;;;;;;;;;;;5016442;28;19910;-29
2022/07/30 09:58:27;;;;;;;;;;;;;;;;;;5016493;28;19913;-30
2022/07/30 10:00:55;;;;;;;;;;;;;;;;;;5015570;28;20186;-30
2022/07/30 10:03:22;;;;;;;;;;;;;;;;;;5016111;28;19918;-29
2022/07/30 10:05:49;;;;;;;;;;;;;;;;;;5016270;28;19948;-29
2022/07/30 10:08:14;;;;;;;;;;;;;;;;;;5016179;28;19921;-29
2022/07/30 10:10:40;;;;;;;;;;;;;;;;;;5016140;28;20337;-29
2022/07/30 10:13:07;;;;;;;;;;;;;;;;;;5015876;28;20004;-29
2022/07/30 10:15:33;;;;;;;;;;;;;;;;;;5015975;28;20287;-29
2022/07/30 10:17:59;;;;;;;;;;;;;;;;;;5016182;28;19920;-29
2022/07/30 10:20:25;;;;;;;;;;;;;;;;;;5015016;28;19910;-29
2022/07/30 10:22:51;;;;;;;;;;;;;;;;;;5016078;28;20015;-29
2022/07/30 10:25:17;;;;;;;;;;;;;;;;;;5015996;28;20264;-29
2022/07/30 10:27:43;;;;;;;;;;;;;;;;;;5016211;28;19925;-29
2022/07/30 10:30:09;;;;;;;;;;;;;;;;;;5015902;28;20268;-29
2022/07/30 10:32:35;;;;;;;;;;;;;;;;;;5015916;28;19913;-29
2022/07/30 10:35:01;;;;;;;;;;;;;;;;;;5014721;28;20402;-29
2022/07/30 10:37:27;;;;;;;;;;;;;;;;;;5014782;28;20233;-29
2022/07/30 10:39:54;;;;;;;;;;;;;;;;;;5016015;28;19914;-29
2022/07/30 10:42:19;;;;;;;;;;;;;;;;;;5015545;28;20269;-29
2022/07/30 10:44:45;;;;;;;;;;;;;;;;;;5015563;28;19963;-29
2022/07/30 10:47:12;;;;;;;;;;;;;;;;;;5015566;28;19925;-29
2022/07/30 10:49:38;;;;;;;;;;;;;;;;;;5015523;28;20000;-29
2022/07/30 10:52:04;;;;;;;;;;;;;;;;;;5015405;28;19913;-29
2022/07/30 10:54:30;;;;;;;;;;;;;;;;;;5015403;28;20245;-29
2022/07/30 10:56:56;;;;;;;;;;;;;;;;;;5015754;28;19945;-29
2022/07/30 10:59:22;;;;;;;;;;;;;;;;;;5015429;28;19913;-29
2022/07/30 11:01:48;;;;;;;;;;;;;;;;;;5015130;28;19993;-29
2022/07/30 11:04:14;;;;;;;;;;;;;;;;;;5014930;28;20011;-29
2022/07/30 11:06:40;;;;;;;;;;;;;;;;;;5014424;28;19913;-29
2022/07/30 11:09:06;;;;;;;;;;;;;;;;;;5015374;28;19992;-29
2022/07/30 11:11:32;;;;;;;;;;;;;;;;;;5015293;28;19957;-29
2022/07/30 11:13:58;;;;;;;;;;;;;;;;;;5015172;28;19928;-28
2022/07/30 11:16:24;;;;;;;;;;;;;;;;;;5015523;28;19920;-29
2022/07/30 11:18:50;;;;;;;;;;;;;;;;;;5014340;28;19909;-29
2022/07/30 11:21:16;;;;;;;;;;;;;;;;;;5014274;28;19913;-29
2022/07/30 11:23:44;;;;;;;;;;;;;;;;;;5015442;28;19961;-29
2022/07/30 11:26:10;;;;;;;;;;;;;;;;;;5015228;28;20344;-29
2022/07/30 11:28:36;;;;;;;;;;;;;;;;;;5014198;28;19924;-29
2022/07/30 11:31:02;;;;;;;;;;;;;;;;;;5015169;28;19909;-29
2022/07/30 11:33:28;;;;;;;;;;;;;;;;;;5014087;28;19941;-29
2022/07/30 11:35:54;;;;;;;;;;;;;;;;;;5015158;28;19925;-29
2022/07/30 11:38:20;;;;;;;;;;;;;;;;;;5015069;28;19914;-30
2022/07/30 11:40:47;;;;;;;;;;;;;;;;;;5015159;28;20252;-29
2022/07/30 11:43:15;;;;;;;;;;;;;;;;;;5015253;28;19929;-29
2022/07/30 11:45:41;;;;;;;;;;;;;;;;;;5015006;28;19913;-29
2022/07/30 11:48:07;;;;;;;;;;;;;;;;;;5014990;28;19910;-29
2022/07/30 11:50:33;;;;;;;;;;;;;;;;;;5013968;28;20237;-29
2022/07/30 11:52:59;;;;;;;;;;;;;;;;;;5014797;28;19910;-29
2022/07/30 11:55:25;;;;;;;;;;;;;;;;;;5014905;28;19913;-29
2022/07/30 11:57:52;;;;;;;;;;;;;;;;;;5014933;28;19909;-28
2022/07/30 12:00:18;;;;;;;;;;;;;;;;;;5014872;28;19917;-28
2022/07/30 12:02:44;;;;;;;;;;;;;;;;;;5014620;28;19962;-29
2022/07/30 12:05:10;;;;;;;;;;;;;;;;;;5015420;28;19913;-29
2022/07/30 12:07:36;;;;;;;;;;;;;;;;;;5014845;28;19910;-30
2022/07/30 12:10:01;;;;;;;;;;;;;;;;;;5013851;28;20012;-29
2022/07/30 12:12:28;;;;;;;;;;;;;;;;;;5013841;28;19917;-30
2022/07/30 12:14:54;;;;;;;;;;;;;;;;;;5017264;28;19931;-30
2022/07/30 12:17:20;;;;;;;;;;;;;;;;;;5018305;28;19992;-29
2022/07/30 12:19:46;;;;;;;;;;;;;;;;;;5018531;28;19913;-29
2022/07/30 12:22:12;;;;;;;;;;;;;;;;;;5018153;28;19909;-29
2022/07/30 12:24:38;;;;;;;;;;;;;;;;;;5018468;28;19917;-28
2022/07/30 12:27:04;;;;;;;;;;;;;;;;;;5017169;28;19964;-29
2022/07/30 12:29:31;;;;;;;;;;;;;;;;;;5018057;28;19914;-29
2022/07/30 12:31:57;;;;;;;;;;;;;;;;;;5017982;28;19913;-29
2022/07/30 12:34:23;;;;;;;;;;;;;;;;;;5018176;28;19967;-29
2022/07/30 12:36:49;;;;;;;;;;;;;;;;;;5018005;28;19914;-29
2022/07/30 12:39:15;;;;;;;;;;;;;;;;;;5017894;28;19914;-29
2022/07/30 12:41:41;;;;;;;;;;;;;;;;;;5016918;28;19909;-29
2022/07/30 12:44:07;;;;;;;;;;;;;;;;;;5017723;28;19925;-29
2022/07/30 12:46:33;;;;;;;;;;;;;;;;;;5017780;28;19917;-30
2022/07/30 12:49:02;;;;;;;;;;;;;;;;;;5017737;28;19916;-29
2022/07/30 12:51:28;;;;;;;;;;;;;;;;;;5017990;28;19923;-29
2022/07/30 12:53:54;;;;;;;;;;;;;;;;;;5017504;28;20347;-29
2022/07/30 12:56:20;;;;;;;;;;;;;;;;;;5017654;28;20353;-29
2022/07/30 12:58:46;;;;;;;;;;;;;;;;;;5017544;28;19913;-29
2022/07/30 13:01:12;;;;;;;;;;;;;;;;;;5017504;28;19914;-30
2022/07/30 13:03:38;;;;;;;;;;;;;;;;;;5016241;28;19918;-29
2022/07/30 13:06:04;;;;;;;;;;;;;;;;;;5016491;28;19914;-29
2022/07/30 13:08:30;;;;;;;;;;;;;;;;;;5017385;28;19914;-29
2022/07/30 13:10:56;;;;;;;;;;;;;;;;;;5017311;28;20052;-29
2022/07/30 13:13:22;;;;;;;;;;;;;;;;;;5017107;28;20311;-28
2022/07/30 13:15:48;;;;;;;;;;;;;;;;;;5017225;28;19937;-28
2022/07/30 13:18:14;;;;;;;;;;;;;;;;;;5017164;28;19917;-29
2022/07/30 13:20:40;;;;;;;;;;;;;;;;;;5017129;28;19910;-29
2022/07/30 13:23:06;;;;;;;;;;;;;;;;;;5016986;28;20016;-29
2022/07/30 13:25:32;;;;;;;;;;;;;;;;;;5016539;28;19944;-28
2022/07/30 13:27:58;;;;;;;;;;;;;;;;;;5016957;28;19914;-29
2022/07/30 13:30:24;;;;;;;;;;;;;;;;;;5017212;28;19932;-29
2022/07/30 13:32:50;;;;;;;;;;;;;;;;;;5017044;28;19967;-29
2022/07/30 13:35:16;;;;;;;;;;;;;;;;;;5016861;28;19909;-29
2022/07/30 13:37:42;;;;;;;;;;;;;;;;;;5017090;28;20005;-29
2022/07/30 13:40:08;;;;;;;;;;;;;;;;;;5016772;28;19944;-29
2022/07/30 13:42:34;;;;;;;;;;;;;;;;;;5016660;28;19949;-29
2022/07/30 13:45:00;;;;;;;;;;;;;;;;;;5016684;28;19921;-29
2022/07/30 13:47:26;;;;;;;;;;;;;;;;;;5016608;28;19914;-29
2022/07/30 13:49:52;;;;;;;;;;;;;;;;;;5016593;28;19936;-29
2022/07/30 13:52:18;;;;;;;;;;;;;;;;;;5016503;28;19916;-29
2022/07/30 13:54:44;;;;;;;;;;;;;;;;;;5015459;28;19921;-29
2022/07/30 13:57:10;;;;;;;;;;;;;;;;;;5016732;28;20312;-29
2022/07/30 13:59:36;;;;;;;;;;;;;;;;;;5016681;28;19909;-29
2022/07/30 14:02:02;;;;;;;;;;;;;;;;;;5016294;28;19980;-29
2022/07/30 14:04:28;;;;;;;;;;;;;;;;;;5016102;28;19917;-29
2022/07/30 14:06:54;;;;;;;;;;;;;;;;;;5016532;28;19967;-29
2022/07/30 14:09:20;;;;;;;;;;;;;;;;;;5016279;28;19909;-29
2022/07/30 14:11:46;;;;;;;;;;;;;;;;;;5016122;28;20310;-29
2022/07/30 14:14:12;;;;;;;;;;;;;;;;;;5016112;28;19918;-29
2022/07/30 14:16:38;;;;;;;;;;;;;;;;;;5016126;28;19913;-29
2022/07/30 14:19:04;;;;;;;;;;;;;;;;;;5016210;28;19917;-30
2022/07/30 14:21:30;;;;;;;;;;;;;;;;;;5016285;28;20009;-26
2022/07/30 14:23:56;;;;;;;;;;;;;;;;;;5015992;28;19913;-26
2022/07/30 14:26:22;;;;;;;;;;;;;;;;;;5015966;28;19920;-25
2022/07/30 14:28:48;;;;;;;;;;;;;;;;;;5015973;28;19917;-28
2022/07/30 14:31:15;;;;;;;;;;;;;;;;;;5014978;28;19949;-24
2022/07/30 14:33:41;;;;;;;;;;;;;;;;;;5015706;28;19928;-27
2022/07/30 14:36:07;;;;;;;;;;;;;;;;;;5015839;28;20365;-28
2022/07/30 14:38:33;;;;;;;;;;;;;;;;;;5014998;28;20008;-29
2022/07/30 14:40:59;;;;;;;;;;;;;;;;;;5016011;28;20345;-24
2022/07/30 14:43:26;;;;;;;;;;;;;;;;;;5014661;28;20007;-26
2022/07/30 14:45:52;;;;;;;;;;;;;;;;;;5015951;28;19913;-26
2022/07/30 14:48:18;;;;;;;;;;;;;;;;;;5015869;28;20051;-25
2022/07/30 14:50:44;;;;;;;;;;;;;;;;;;5015646;28;19967;-26
2022/07/30 14:53:10;;;;;;;;;;;;;;;;;;5015453;28;20324;-26
2022/07/30 14:55:36;;;;;;;;;;;;;;;;;;5014568;28;19913;-26
2022/07/30 14:58:02;;;;;;;;;;;;;;;;;;5015756;28;19925;-26
2022/07/30 15:00:28;;;;;;;;;;;;;;;;;;5015452;28;20368;-24
2022/07/30 15:02:54;;;;;;;;;;;;;;;;;;5015296;28;19940;-29
2022/07/30 15:05:20;;;;;;;;;;;;;;;;;;5015439;28;20020;-26
2022/07/30 15:07:46;;;;;;;;;;;;;;;;;;5015391;28;19924;-25
2022/07/30 15:10:12;;;;;;;;;;;;;;;;;;5015301;28;19913;-26
2022/07/30 15:12:38;;;;;;;;;;;;;;;;;;5015476;28;19964;-26
2022/07/30 15:15:04;;;;;;;;;;;;;;;;;;5014283;28;20284;-27
2022/07/30 15:17:30;;;;;;;;;;;;;;;;;;5015303;28;19944;-27
2022/07/30 15:19:56;;;;;;;;;;;;;;;;;;5015230;28;20333;-25
2022/07/30 15:22:22;;;;;;;;;;;;;;;;;;5014211;28;19937;-27
2022/07/30 15:24:48;;;;;;;;;;;;;;;;;;5015499;28;19910;-25
2022/07/30 15:27:14;;;;;;;;;;;;;;;;;;5015430;28;19914;-25
2022/07/30 15:29:40;;;;;;;;;;;;;;;;;;5015444;28;19910;-26
2022/07/30 15:32:06;;;;;;;;;;;;;;;;;;5015319;28;20241;-26
2022/07/30 15:34:35;;;;;;;;;;;;;;;;;;5015336;28;19913;-24
2022/07/30 15:37:01;;;;;;;;;;;;;;;;;;5014130;28;19924;-32
2022/07/30 15:39:28;;;;;;;;;;;;;;;;;;5015362;28;20008;-29
2022/07/30 15:41:54;;;;;;;;;;;;;;;;;;5015013;28;20305;-25
2022/07/30 15:44:20;;;;;;;;;;;;;;;;;;5015332;28;19944;-25
2022/07/30 15:46:46;;;;;;;;;;;;;;;;;;5015065;28;19940;-27
2022/07/30 15:49:12;;;;;;;;;;;;;;;;;;5016629;28;19914;-32
2022/07/30 15:51:46;;;;;;;;;;;;;;;;;;5017922;28;19917;-26
2022/07/30 15:54:12;;;;;;;;;;;;;;;;;;5017799;28;19913;-24
2022/07/30 15:56:38;;;;;;;;;;;;;;;;;;5018769;28;19913;-24
2022/07/30 15:59:04;;;;;;;;;;;;;;;;;;5017760;28;20260;-26
2022/07/30 16:01:30;;;;;;;;;;;;;;;;;;5018644;28;19949;-25
2022/07/30 16:03:56;;;;;;;;;;;;;;;;;;5018351;28;20268;-25
2022/07/30 16:06:22;;;;;;;;;;;;;;;;;;5018579;28;20260;-29
2022/07/30 16:08:48;;;;;;;;;;;;;;;;;;5018506;28;19924;-25
2022/07/30 16:11:13;;;;;;;;;;;;;;;;;;5018511;28;19914;-24
2022/07/30 16:13:39;;;;;;;;;;;;;;;;;;5018380;28;19983;-25
2022/07/30 16:16:06;;;;;;;;;;;;;;;;;;5017393;28;19913;-25
2022/07/30 16:18:32;;;;;;;;;;;;;;;;;;5018380;28;20311;-26
2022/07/30 16:20:59;;;;;;;;;;;;;;;;;;5018526;28;19925;-24
2022/07/30 16:23:25;;;;;;;;;;;;;;;;;;5018278;28;19957;-26
2022/07/30 16:25:51;;;;;;;;;;;;;;;;;;5018504;28;19964;-26
2022/07/30 16:28:17;;;;;;;;;;;;;;;;;;5018390;28;19920;-25
2022/07/30 16:30:44;;;;;;;;;;;;;;;;;;5018097;28;19967;-24
2022/07/30 16:33:10;;;;;;;;;;;;;;;;;;5017905;28;20348;-26
2022/07/30 16:35:36;;;;;;;;;;;;;;;;;;5018336;28;19916;-25
2022/07/30 16:38:02;;;;;;;;;;;;;;;;;;5018014;28;19914;-25